sensor_id;sensor_type;location;lat;lon;timestamp;P1;durP1;ratioP1;P2;durP2;ratioP2
71629;SDS011;59479;51.902;8.212;2023-03-01T00:02:15;11.10;;;6.43;;
71629;SDS011;59479;51.902;8.212;2023-03-01T00:04:41;11.67;;;5.90;;
71629;SDS011;59479;51.902;8.212;2023-03-01T00:07:06;9.95;;;5.85;;
71629;SDS011;59479;51.902;8.212;2023-03-01T00:09:31;10.33;;;5.30;;
71629;SDS011;59479;51.902;8.212;2023-03-01T00:11:57;10.17;;;5.83;;
71629;SDS011;59479;51.902;8.212;2023-03-01T00:14:22;8.37;;;5.40;;
71629;SDS011;59479;51.902;8.212;2023-03-01T00:16:48;12.02;;;6.05;;
71629;SDS011;59479;51.902;8.212;2023-03-01T00:19:14;9.17;;;6.10;;
71629;SDS011;59479;51.902;8.212;2023-03-01T00:21:42;8.05;;;5.15;;
71629;SDS011;59479;51.902;8.212;2023-03-01T00:24:07;10.40;;;5.47;;
71629;SDS011;59479;51.902;8.212;2023-03-01T00:26:34;8.95;;;5.70;;
71629;SDS011;59479;51.902;8.212;2023-03-01T00:28:59;9.03;;;5.73;;
71629;SDS011;59479;51.902;8.212;2023-03-01T00:31:26;9.33;;;5.63;;
71629;SDS011;59479;51.902;8.212;2023-03-01T00:33:57;10.13;;;5.43;;
71629;SDS011;59479;51.902;8.212;2023-03-01T00:36:29;11.30;;;5.18;;
71629;SDS011;59479;51.902;8.212;2023-03-01T00:38:58;10.38;;;5.70;;
71629;SDS011;59479;51.902;8.212;2023-03-01T00:41:24;9.87;;;5.47;;
71629;SDS011;59479;51.902;8.212;2023-03-01T00:43:51;10.50;;;6.15;;
71629;SDS011;59479;51.902;8.212;2023-03-01T00:46:18;13.40;;;5.17;;
71629;SDS011;59479;51.902;8.212;2023-03-01T00:48:45;9.23;;;5.18;;
71629;SDS011;59479;51.902;8.212;2023-03-01T00:51:12;9.68;;;5.00;;
71629;SDS011;59479;51.902;8.212;2023-03-01T00:53:41;13.20;;;5.75;;
71629;SDS011;59479;51.902;8.212;2023-03-01T00:56:12;8.27;;;5.40;;
71629;SDS011;59479;51.902;8.212;2023-03-01T00:58:39;11.50;;;6.32;;
71629;SDS011;59479;51.902;8.212;2023-03-01T01:01:47;9.18;;;5.15;;
71629;SDS011;59479;51.902;8.212;2023-03-01T01:03:56;12.13;;;5.27;;
71629;SDS011;59479;51.902;8.212;2023-03-01T01:06:24;8.90;;;5.03;;
71629;SDS011;59479;51.902;8.212;2023-03-01T01:08:54;9.23;;;5.22;;
71629;SDS011;59479;51.902;8.212;2023-03-01T01:11:21;7.90;;;5.53;;
71629;SDS011;59479;51.902;8.212;2023-03-01T01:13:48;9.65;;;5.43;;
71629;SDS011;59479;51.902;8.212;2023-03-01T01:16:14;9.40;;;5.80;;
71629;SDS011;59479;51.902;8.212;2023-03-01T01:18:41;8.77;;;5.22;;
71629;SDS011;59479;51.902;8.212;2023-03-01T01:21:08;9.38;;;5.65;;
71629;SDS011;59479;51.902;8.212;2023-03-01T01:23:36;9.93;;;5.40;;
71629;SDS011;59479;51.902;8.212;2023-03-01T01:26:10;9.07;;;5.03;;
71629;SDS011;59479;51.902;8.212;2023-03-01T01:28:37;12.10;;;5.93;;
71629;SDS011;59479;51.902;8.212;2023-03-01T01:31:03;10.60;;;5.90;;
71629;SDS011;59479;51.902;8.212;2023-03-01T01:33:29;10.55;;;5.32;;
71629;SDS011;59479;51.902;8.212;2023-03-01T01:35:54;8.23;;;5.40;;
71629;SDS011;59479;51.902;8.212;2023-03-01T01:38:20;8.73;;;5.32;;
71629;SDS011;59479;51.902;8.212;2023-03-01T01:40:46;9.95;;;5.70;;
71629;SDS011;59479;51.902;8.212;2023-03-01T01:43:29;9.85;;;5.82;;
71629;SDS011;59479;51.902;8.212;2023-03-01T01:46:04;9.07;;;5.60;;
71629;SDS011;59479;51.902;8.212;2023-03-01T01:48:45;8.02;;;5.38;;
71629;SDS011;59479;51.902;8.212;2023-03-01T01:51:14;10.20;;;5.33;;
71629;SDS011;59479;51.902;8.212;2023-03-01T01:53:43;8.48;;;5.50;;
71629;SDS011;59479;51.902;8.212;2023-03-01T01:56:11;9.88;;;5.40;;
71629;SDS011;59479;51.902;8.212;2023-03-01T01:58:38;9.90;;;5.47;;
71629;SDS011;59479;51.902;8.212;2023-03-01T02:01:04;10.60;;;5.53;;
71629;SDS011;59479;51.902;8.212;2023-03-01T02:03:31;9.23;;;4.93;;
71629;SDS011;59479;51.902;8.212;2023-03-01T02:08:44;9.20;;;5.43;;
71629;SDS011;59479;51.902;8.212;2023-03-01T02:11:11;7.78;;;5.03;;
71629;SDS011;59479;51.902;8.212;2023-03-01T02:13:40;10.57;;;4.93;;
71629;SDS011;59479;51.902;8.212;2023-03-01T02:16:10;9.80;;;5.70;;
71629;SDS011;59479;51.902;8.212;2023-03-01T02:18:38;8.70;;;5.40;;
71629;SDS011;59479;51.902;8.212;2023-03-01T02:23:29;9.30;;;5.40;;
71629;SDS011;59479;51.902;8.212;2023-03-01T02:26:00;7.43;;;5.13;;
71629;SDS011;59479;51.902;8.212;2023-03-01T02:28:33;9.30;;;5.35;;
71629;SDS011;59479;51.902;8.212;2023-03-01T02:31:01;10.00;;;5.53;;
71629;SDS011;59479;51.902;8.212;2023-03-01T02:33:47;8.93;;;5.00;;
71629;SDS011;59479;51.902;8.212;2023-03-01T02:36:29;10.20;;;5.10;;
71629;SDS011;59479;51.902;8.212;2023-03-01T02:38:58;8.50;;;5.27;;
71629;SDS011;59479;51.902;8.212;2023-03-01T02:41:26;10.75;;;5.28;;
71629;SDS011;59479;51.902;8.212;2023-03-01T02:43:55;10.95;;;5.68;;
71629;SDS011;59479;51.902;8.212;2023-03-01T02:46:23;8.80;;;5.37;;
71629;SDS011;59479;51.902;8.212;2023-03-01T02:48:54;9.95;;;5.38;;
71629;SDS011;59479;51.902;8.212;2023-03-01T02:54:29;9.15;;;5.13;;
71629;SDS011;59479;51.902;8.212;2023-03-01T02:57:01;7.70;;;4.93;;
71629;SDS011;59479;51.902;8.212;2023-03-01T02:59:29;10.57;;;5.33;;
71629;SDS011;59479;51.902;8.212;2023-03-01T03:02:00;7.88;;;5.25;;
71629;SDS011;59479;51.902;8.212;2023-03-01T03:04:25;9.55;;;5.10;;
71629;SDS011;59479;51.902;8.212;2023-03-01T03:06:51;8.57;;;5.50;;
71629;SDS011;59479;51.902;8.212;2023-03-01T03:09:16;8.33;;;4.83;;
71629;SDS011;59479;51.902;8.212;2023-03-01T03:11:42;8.80;;;5.43;;
71629;SDS011;59479;51.902;8.212;2023-03-01T03:14:09;9.10;;;5.43;;
71629;SDS011;59479;51.902;8.212;2023-03-01T03:16:49;12.23;;;5.93;;
71629;SDS011;59479;51.902;8.212;2023-03-01T03:19:15;11.70;;;5.50;;
71629;SDS011;59479;51.902;8.212;2023-03-01T03:21:42;10.18;;;5.53;;
71629;SDS011;59479;51.902;8.212;2023-03-01T03:24:08;12.25;;;5.80;;
71629;SDS011;59479;51.902;8.212;2023-03-01T03:26:33;8.67;;;5.07;;
71629;SDS011;59479;51.902;8.212;2023-03-01T03:28:58;11.67;;;5.53;;
71629;SDS011;59479;51.902;8.212;2023-03-01T03:31:24;9.20;;;5.30;;
71629;SDS011;59479;51.902;8.212;2023-03-01T03:33:49;10.95;;;5.20;;
71629;SDS011;59479;51.902;8.212;2023-03-01T03:36:19;10.57;;;5.20;;
71629;SDS011;59479;51.902;8.212;2023-03-01T03:38:46;9.50;;;5.90;;
71629;SDS011;59479;51.902;8.212;2023-03-01T03:41:12;9.03;;;5.63;;
71629;SDS011;59479;51.902;8.212;2023-03-01T03:43:38;11.63;;;5.73;;
71629;SDS011;59479;51.902;8.212;2023-03-01T03:46:05;9.13;;;5.38;;
71629;SDS011;59479;51.902;8.212;2023-03-01T03:48:36;9.50;;;6.05;;
71629;SDS011;59479;51.902;8.212;2023-03-01T03:51:03;10.18;;;5.28;;
71629;SDS011;59479;51.902;8.212;2023-03-01T03:53:31;9.73;;;5.20;;
71629;SDS011;59479;51.902;8.212;2023-03-01T03:55:58;9.70;;;5.47;;
71629;SDS011;59479;51.902;8.212;2023-03-01T03:58:23;10.13;;;5.43;;
71629;SDS011;59479;51.902;8.212;2023-03-01T04:00:51;11.70;;;6.30;;
71629;SDS011;59479;51.902;8.212;2023-03-01T04:03:19;9.93;;;5.43;;
71629;SDS011;59479;51.902;8.212;2023-03-01T04:05:45;9.55;;;5.90;;
71629;SDS011;59479;51.902;8.212;2023-03-01T04:08:11;10.98;;;6.60;;
71629;SDS011;59479;51.902;8.212;2023-03-01T04:10:38;10.30;;;6.07;;
71629;SDS011;59479;51.902;8.212;2023-03-01T04:13:05;10.00;;;5.80;;
71629;SDS011;59479;51.902;8.212;2023-03-01T04:15:31;10.73;;;6.10;;
71629;SDS011;59479;51.902;8.212;2023-03-01T04:17:58;9.80;;;5.63;;
71629;SDS011;59479;51.902;8.212;2023-03-01T04:20:24;11.90;;;5.70;;
71629;SDS011;59479;51.902;8.212;2023-03-01T04:22:52;11.77;;;5.75;;
71629;SDS011;59479;51.902;8.212;2023-03-01T04:25:22;10.27;;;5.80;;
71629;SDS011;59479;51.902;8.212;2023-03-01T04:27:48;11.38;;;6.05;;
71629;SDS011;59479;51.902;8.212;2023-03-01T04:30:13;10.23;;;5.67;;
71629;SDS011;59479;51.902;8.212;2023-03-01T04:32:39;10.20;;;5.80;;
71629;SDS011;59479;51.902;8.212;2023-03-01T04:35:05;9.82;;;5.63;;
71629;SDS011;59479;51.902;8.212;2023-03-01T04:37:30;9.93;;;5.40;;
71629;SDS011;59479;51.902;8.212;2023-03-01T04:39:55;9.23;;;5.83;;
71629;SDS011;59479;51.902;8.212;2023-03-01T04:42:21;9.23;;;5.77;;
71629;SDS011;59479;51.902;8.212;2023-03-01T04:44:46;12.87;;;6.43;;
71629;SDS011;59479;51.902;8.212;2023-03-01T04:47:12;11.13;;;5.43;;
71629;SDS011;59479;51.902;8.212;2023-03-01T04:49:37;10.48;;;6.38;;
71629;SDS011;59479;51.902;8.212;2023-03-01T04:52:03;9.13;;;5.90;;
71629;SDS011;59479;51.902;8.212;2023-03-01T04:54:29;11.68;;;5.70;;
71629;SDS011;59479;51.902;8.212;2023-03-01T04:56:57;9.48;;;6.05;;
71629;SDS011;59479;51.902;8.212;2023-03-01T04:59:23;10.60;;;6.23;;
71629;SDS011;59479;51.902;8.212;2023-03-01T05:01:49;11.45;;;6.35;;
71629;SDS011;59479;51.902;8.212;2023-03-01T05:04:15;11.95;;;6.32;;
71629;SDS011;59479;51.902;8.212;2023-03-01T05:06:40;10.23;;;5.87;;
71629;SDS011;59479;51.902;8.212;2023-03-01T05:09:06;12.10;;;6.40;;
71629;SDS011;59479;51.902;8.212;2023-03-01T05:11:31;10.17;;;5.70;;
71629;SDS011;59479;51.902;8.212;2023-03-01T05:14:07;11.85;;;6.50;;
71629;SDS011;59479;51.902;8.212;2023-03-01T05:16:33;9.85;;;5.90;;
71629;SDS011;59479;51.902;8.212;2023-03-01T05:19:01;12.93;;;6.77;;
71629;SDS011;59479;51.902;8.212;2023-03-01T05:21:34;8.88;;;5.88;;
71629;SDS011;59479;51.902;8.212;2023-03-01T05:24:20;11.90;;;6.38;;
71629;SDS011;59479;51.902;8.212;2023-03-01T05:26:45;11.67;;;6.40;;
71629;SDS011;59479;51.902;8.212;2023-03-01T05:29:13;9.57;;;5.88;;
71629;SDS011;59479;51.902;8.212;2023-03-01T05:31:38;10.70;;;6.60;;
71629;SDS011;59479;51.902;8.212;2023-03-01T05:34:03;11.67;;;6.40;;
71629;SDS011;59479;51.902;8.212;2023-03-01T05:36:29;11.27;;;6.55;;
71629;SDS011;59479;51.902;8.212;2023-03-01T05:38:54;11.70;;;7.00;;
71629;SDS011;59479;51.902;8.212;2023-03-01T05:41:20;11.30;;;5.95;;
71629;SDS011;59479;51.902;8.212;2023-03-01T05:43:46;12.95;;;6.32;;
71629;SDS011;59479;51.902;8.212;2023-03-01T05:46:11;12.40;;;6.50;;
71629;SDS011;59479;51.902;8.212;2023-03-01T05:48:38;9.37;;;6.47;;
71629;SDS011;59479;51.902;8.212;2023-03-01T05:51:03;9.98;;;6.25;;
71629;SDS011;59479;51.902;8.212;2023-03-01T05:53:29;9.67;;;6.13;;
71629;SDS011;59479;51.902;8.212;2023-03-01T05:55:54;12.17;;;6.83;;
71629;SDS011;59479;51.902;8.212;2023-03-01T05:58:20;11.65;;;7.20;;
71629;SDS011;59479;51.902;8.212;2023-03-01T06:00:47;11.40;;;7.03;;
71629;SDS011;59479;51.902;8.212;2023-03-01T06:03:14;12.35;;;6.45;;
71629;SDS011;59479;51.902;8.212;2023-03-01T06:05:41;11.13;;;6.00;;
71629;SDS011;59479;51.902;8.212;2023-03-01T06:08:07;11.85;;;6.18;;
71629;SDS011;59479;51.902;8.212;2023-03-01T06:10:34;11.23;;;6.90;;
71629;SDS011;59479;51.902;8.212;2023-03-01T06:12:59;11.63;;;6.47;;
71629;SDS011;59479;51.902;8.212;2023-03-01T06:15:25;12.83;;;7.03;;
71629;SDS011;59479;51.902;8.212;2023-03-01T06:17:50;12.60;;;6.00;;
71629;SDS011;59479;51.902;8.212;2023-03-01T06:20:18;10.90;;;6.18;;
71629;SDS011;59479;51.902;8.212;2023-03-01T06:22:45;11.93;;;6.80;;
71629;SDS011;59479;51.902;8.212;2023-03-01T06:25:12;10.20;;;6.00;;
71629;SDS011;59479;51.902;8.212;2023-03-01T06:27:38;11.60;;;6.72;;
71629;SDS011;59479;51.902;8.212;2023-03-01T06:30:05;10.43;;;5.80;;
71629;SDS011;59479;51.902;8.212;2023-03-01T06:32:32;13.43;;;6.78;;
71629;SDS011;59479;51.902;8.212;2023-03-01T06:34:57;13.37;;;7.43;;
71629;SDS011;59479;51.902;8.212;2023-03-01T06:37:23;14.05;;;7.63;;
71629;SDS011;59479;51.902;8.212;2023-03-01T06:39:49;10.75;;;7.50;;
71629;SDS011;59479;51.902;8.212;2023-03-01T06:42:15;14.00;;;7.90;;
71629;SDS011;59479;51.902;8.212;2023-03-01T06:44:40;12.83;;;7.03;;
71629;SDS011;59479;51.902;8.212;2023-03-01T06:47:05;13.03;;;7.10;;
71629;SDS011;59479;51.902;8.212;2023-03-01T06:49:31;17.20;;;8.87;;
71629;SDS011;59479;51.902;8.212;2023-03-01T06:51:56;12.23;;;7.90;;
71629;SDS011;59479;51.902;8.212;2023-03-01T06:54:22;15.02;;;8.13;;
71629;SDS011;59479;51.902;8.212;2023-03-01T06:56:48;15.13;;;7.60;;
71629;SDS011;59479;51.902;8.212;2023-03-01T06:59:15;13.32;;;7.90;;
71629;SDS011;59479;51.902;8.212;2023-03-01T07:01:40;13.95;;;7.43;;
71629;SDS011;59479;51.902;8.212;2023-03-01T07:04:06;15.27;;;8.67;;
71629;SDS011;59479;51.902;8.212;2023-03-01T07:06:31;15.60;;;7.73;;
71629;SDS011;59479;51.902;8.212;2023-03-01T07:08:57;14.60;;;7.63;;
71629;SDS011;59479;51.902;8.212;2023-03-01T07:11:22;13.23;;;8.77;;
71629;SDS011;59479;51.902;8.212;2023-03-01T07:13:48;13.23;;;7.93;;
71629;SDS011;59479;51.902;8.212;2023-03-01T07:16:13;12.40;;;7.77;;
71629;SDS011;59479;51.902;8.212;2023-03-01T07:18:39;14.82;;;8.15;;
71629;SDS011;59479;51.902;8.212;2023-03-01T07:21:06;14.97;;;8.47;;
71629;SDS011;59479;51.902;8.212;2023-03-01T07:23:32;13.32;;;7.35;;
71629;SDS011;59479;51.902;8.212;2023-03-01T07:25:58;13.97;;;7.50;;
71629;SDS011;59479;51.902;8.212;2023-03-01T07:28:23;12.93;;;7.82;;
71629;SDS011;59479;51.902;8.212;2023-03-01T07:30:48;12.83;;;7.37;;
71629;SDS011;59479;51.902;8.212;2023-03-01T07:33:14;12.53;;;7.50;;
71629;SDS011;59479;51.902;8.212;2023-03-01T07:35:39;10.83;;;6.97;;
71629;SDS011;59479;51.902;8.212;2023-03-01T07:38:04;11.73;;;7.43;;
71629;SDS011;59479;51.902;8.212;2023-03-01T07:40:30;10.57;;;7.40;;
71629;SDS011;59479;51.902;8.212;2023-03-01T07:42:58;11.77;;;7.00;;
71629;SDS011;59479;51.902;8.212;2023-03-01T07:45:24;12.13;;;6.78;;
71629;SDS011;59479;51.902;8.212;2023-03-01T07:47:50;11.80;;;7.18;;
71629;SDS011;59479;51.902;8.212;2023-03-01T07:50:19;13.10;;;7.28;;
71629;SDS011;59479;51.902;8.212;2023-03-01T07:52:45;13.50;;;6.80;;
71629;SDS011;59479;51.902;8.212;2023-03-01T07:55:11;13.68;;;6.75;;
71629;SDS011;59479;51.902;8.212;2023-03-01T07:57:36;14.67;;;8.07;;
71629;SDS011;59479;51.902;8.212;2023-03-01T08:00:01;12.90;;;7.27;;
71629;SDS011;59479;51.902;8.212;2023-03-01T08:02:27;14.88;;;7.80;;
71629;SDS011;59479;51.902;8.212;2023-03-01T08:04:52;10.90;;;6.93;;
71629;SDS011;59479;51.902;8.212;2023-03-01T08:07:17;14.20;;;7.30;;
71629;SDS011;59479;51.902;8.212;2023-03-01T08:09:43;13.20;;;7.30;;
71629;SDS011;59479;51.902;8.212;2023-03-01T08:12:08;11.43;;;7.00;;
71629;SDS011;59479;51.902;8.212;2023-03-01T08:14:33;14.23;;;7.13;;
71629;SDS011;59479;51.902;8.212;2023-03-01T08:16:59;16.30;;;7.57;;
71629;SDS011;59479;51.902;8.212;2023-03-01T08:19:24;12.13;;;7.20;;
71629;SDS011;59479;51.902;8.212;2023-03-01T08:21:50;13.38;;;6.68;;
71629;SDS011;59479;51.902;8.212;2023-03-01T08:24:15;11.90;;;7.20;;
71629;SDS011;59479;51.902;8.212;2023-03-01T08:26:40;12.80;;;7.83;;
71629;SDS011;59479;51.902;8.212;2023-03-01T08:29:06;13.93;;;7.67;;
71629;SDS011;59479;51.902;8.212;2023-03-01T08:31:35;15.43;;;7.40;;
71629;SDS011;59479;51.902;8.212;2023-03-01T08:34:03;15.55;;;8.30;;
71629;SDS011;59479;51.902;8.212;2023-03-01T08:36:32;15.70;;;7.72;;
71629;SDS011;59479;51.902;8.212;2023-03-01T08:39:00;18.07;;;8.83;;
71629;SDS011;59479;51.902;8.212;2023-03-01T08:41:25;24.90;;;10.63;;
71629;SDS011;59479;51.902;8.212;2023-03-01T08:43:50;19.77;;;9.97;;
71629;SDS011;59479;51.902;8.212;2023-03-01T08:46:16;25.33;;;9.70;;
71629;SDS011;59479;51.902;8.212;2023-03-01T08:48:41;18.77;;;9.00;;
71629;SDS011;59479;51.902;8.212;2023-03-01T08:51:13;15.00;;;7.78;;
71629;SDS011;59479;51.902;8.212;2023-03-01T08:53:41;16.98;;;8.43;;
71629;SDS011;59479;51.902;8.212;2023-03-01T08:56:07;16.50;;;7.38;;
71629;SDS011;59479;51.902;8.212;2023-03-01T08:58:33;15.67;;;7.20;;
71629;SDS011;59479;51.902;8.212;2023-03-01T09:00:59;15.35;;;7.78;;
71629;SDS011;59479;51.902;8.212;2023-03-01T09:03:24;14.10;;;7.43;;
71629;SDS011;59479;51.902;8.212;2023-03-01T09:05:50;16.47;;;8.23;;
71629;SDS011;59479;51.902;8.212;2023-03-01T09:08:17;14.27;;;7.68;;
71629;SDS011;59479;51.902;8.212;2023-03-01T09:10:43;17.23;;;9.07;;
71629;SDS011;59479;51.902;8.212;2023-03-01T09:13:08;14.13;;;7.33;;
71629;SDS011;59479;51.902;8.212;2023-03-01T09:15:34;15.03;;;8.27;;
71629;SDS011;59479;51.902;8.212;2023-03-01T09:18:02;17.77;;;8.20;;
71629;SDS011;59479;51.902;8.212;2023-03-01T09:20:27;15.82;;;8.48;;
71629;SDS011;59479;51.902;8.212;2023-03-01T09:22:53;16.65;;;7.88;;
71629;SDS011;59479;51.902;8.212;2023-03-01T09:25:18;16.00;;;7.97;;
71629;SDS011;59479;51.902;8.212;2023-03-01T09:27:43;15.57;;;7.90;;
71629;SDS011;59479;51.902;8.212;2023-03-01T09:30:09;15.00;;;7.80;;
71629;SDS011;59479;51.902;8.212;2023-03-01T09:32:35;14.23;;;7.47;;
71629;SDS011;59479;51.902;8.212;2023-03-01T09:35:00;14.53;;;7.60;;
71629;SDS011;59479;51.902;8.212;2023-03-01T09:37:26;15.00;;;7.53;;
71629;SDS011;59479;51.902;8.212;2023-03-01T09:39:51;12.60;;;6.47;;
71629;SDS011;59479;51.902;8.212;2023-03-01T09:42:16;14.27;;;6.47;;
71629;SDS011;59479;51.902;8.212;2023-03-01T09:44:46;15.23;;;7.27;;
71629;SDS011;59479;51.902;8.212;2023-03-01T09:47:27;12.98;;;5.93;;
71629;SDS011;59479;51.902;8.212;2023-03-01T09:55:32;13.40;;;6.63;;
71629;SDS011;59479;51.902;8.212;2023-03-01T10:09:37;13.50;;;7.22;;
71629;SDS011;59479;51.902;8.212;2023-03-01T10:12:06;15.07;;;6.65;;
71629;SDS011;59479;51.902;8.212;2023-03-01T10:14:36;14.77;;;6.68;;
71629;SDS011;59479;51.902;8.212;2023-03-01T10:17:11;12.00;;;5.97;;
71629;SDS011;59479;51.902;8.212;2023-03-01T10:19:45;12.88;;;6.88;;
71629;SDS011;59479;51.902;8.212;2023-03-01T10:24:40;12.85;;;6.72;;
71629;SDS011;59479;51.902;8.212;2023-03-01T10:27:11;16.23;;;6.40;;
71629;SDS011;59479;51.902;8.212;2023-03-01T10:29:47;12.55;;;5.85;;
71629;SDS011;59479;51.902;8.212;2023-03-01T10:32:17;11.70;;;6.65;;
71629;SDS011;59479;51.902;8.212;2023-03-01T10:34:43;10.82;;;5.97;;
71629;SDS011;59479;51.902;8.212;2023-03-01T10:37:10;15.00;;;6.00;;
71629;SDS011;59479;51.902;8.212;2023-03-01T10:39:37;12.82;;;6.78;;
71629;SDS011;59479;51.902;8.212;2023-03-01T10:42:22;11.27;;;5.63;;
71629;SDS011;59479;51.902;8.212;2023-03-01T10:44:51;10.32;;;5.45;;
71629;SDS011;59479;51.902;8.212;2023-03-01T10:47:18;11.40;;;6.40;;
71629;SDS011;59479;51.902;8.212;2023-03-01T10:52:25;13.70;;;5.78;;
71629;SDS011;59479;51.902;8.212;2023-03-01T10:54:56;9.35;;;5.40;;
71629;SDS011;59479;51.902;8.212;2023-03-01T10:57:42;12.38;;;5.60;;
71629;SDS011;59479;51.902;8.212;2023-03-01T11:01:24;11.33;;;5.73;;
71629;SDS011;59479;51.902;8.212;2023-03-01T11:03:23;11.77;;;5.93;;
71629;SDS011;59479;51.902;8.212;2023-03-01T11:08:34;11.15;;;5.60;;
71629;SDS011;59479;51.902;8.212;2023-03-01T11:11:44;12.75;;;6.18;;
71629;SDS011;59479;51.902;8.212;2023-03-01T11:16:34;11.53;;;6.17;;
71629;SDS011;59479;51.902;8.212;2023-03-01T11:24:12;11.60;;;6.30;;
71629;SDS011;59479;51.902;8.212;2023-03-01T11:26:43;10.45;;;5.10;;
71629;SDS011;59479;51.902;8.212;2023-03-01T11:31:53;10.60;;;5.65;;
71629;SDS011;59479;51.902;8.212;2023-03-01T11:34:23;12.15;;;5.63;;
71629;SDS011;59479;51.902;8.212;2023-03-01T11:36:59;9.48;;;5.35;;
71629;SDS011;59479;51.902;8.212;2023-03-01T11:39:31;10.68;;;5.78;;
71629;SDS011;59479;51.902;8.212;2023-03-01T11:42:12;10.57;;;5.90;;
71629;SDS011;59479;51.902;8.212;2023-03-01T11:44:43;10.52;;;5.47;;
71629;SDS011;59479;51.902;8.212;2023-03-01T11:47:21;11.13;;;5.82;;
71629;SDS011;59479;51.902;8.212;2023-03-01T11:50:26;13.63;;;5.93;;
71629;SDS011;59479;51.902;8.212;2023-03-01T11:53:13;10.15;;;5.85;;
71629;SDS011;59479;51.902;8.212;2023-03-01T12:07:49;10.57;;;6.20;;
71629;SDS011;59479;51.902;8.212;2023-03-01T12:10:38;10.97;;;5.97;;
71629;SDS011;59479;51.902;8.212;2023-03-01T12:29:52;10.80;;;5.22;;
71629;SDS011;59479;51.902;8.212;2023-03-01T12:32:45;19.98;;;5.68;;
71629;SDS011;59479;51.902;8.212;2023-03-01T12:37:54;11.90;;;6.00;;
71629;SDS011;59479;51.902;8.212;2023-03-01T12:48:42;9.03;;;4.93;;
71629;SDS011;59479;51.902;8.212;2023-03-01T12:51:12;10.23;;;5.55;;
71629;SDS011;59479;51.902;8.212;2023-03-01T12:53:45;9.30;;;5.07;;
71629;SDS011;59479;51.902;8.212;2023-03-01T12:56:14;7.75;;;4.45;;
71629;SDS011;59479;51.902;8.212;2023-03-01T13:01:33;11.48;;;5.15;;
71629;SDS011;59479;51.902;8.212;2023-03-01T13:15:35;8.67;;;4.03;;
71629;SDS011;59479;51.902;8.212;2023-03-01T13:21:03;7.65;;;4.40;;
71629;SDS011;59479;51.902;8.212;2023-03-01T13:23:39;7.25;;;4.18;;
71629;SDS011;59479;51.902;8.212;2023-03-01T13:26:16;8.35;;;4.32;;
71629;SDS011;59479;51.902;8.212;2023-03-01T13:31:09;9.23;;;4.03;;
71629;SDS011;59479;51.902;8.212;2023-03-01T13:33:53;8.55;;;4.28;;
71629;SDS011;59479;51.902;8.212;2023-03-01T13:44:22;10.33;;;4.37;;
71629;SDS011;59479;51.902;8.212;2023-03-01T13:46:59;9.45;;;4.95;;
71629;SDS011;59479;51.902;8.212;2023-03-01T13:50:19;8.10;;;4.72;;
71629;SDS011;59479;51.902;8.212;2023-03-01T13:55:26;8.77;;;4.68;;
71629;SDS011;59479;51.902;8.212;2023-03-01T13:58:30;9.53;;;4.13;;
71629;SDS011;59479;51.902;8.212;2023-03-01T14:03:29;9.13;;;4.72;;
71629;SDS011;59479;51.902;8.212;2023-03-01T14:08:30;7.55;;;4.38;;
71629;SDS011;59479;51.902;8.212;2023-03-01T14:13:48;10.10;;;4.70;;
71629;SDS011;59479;51.902;8.212;2023-03-01T14:19:15;8.82;;;4.75;;
71629;SDS011;59479;51.902;8.212;2023-03-01T14:21:43;9.75;;;4.55;;
71629;SDS011;59479;51.902;8.212;2023-03-01T14:24:16;9.90;;;5.13;;
71629;SDS011;59479;51.902;8.212;2023-03-01T14:26:45;9.52;;;4.90;;
71629;SDS011;59479;51.902;8.212;2023-03-01T14:29:23;8.13;;;4.33;;
71629;SDS011;59479;51.902;8.212;2023-03-01T14:32:19;8.10;;;4.38;;
71629;SDS011;59479;51.902;8.212;2023-03-01T14:34:47;6.95;;;4.22;;
71629;SDS011;59479;51.902;8.212;2023-03-01T14:37:37;8.03;;;3.90;;
71629;SDS011;59479;51.902;8.212;2023-03-01T14:40:19;7.43;;;3.85;;
71629;SDS011;59479;51.902;8.212;2023-03-01T14:42:59;8.23;;;3.92;;
71629;SDS011;59479;51.902;8.212;2023-03-01T14:45:32;7.47;;;4.00;;
71629;SDS011;59479;51.902;8.212;2023-03-01T14:48:04;7.93;;;4.03;;
71629;SDS011;59479;51.902;8.212;2023-03-01T14:50:42;6.78;;;3.75;;
71629;SDS011;59479;51.902;8.212;2023-03-01T14:53:15;8.35;;;4.10;;
71629;SDS011;59479;51.902;8.212;2023-03-01T14:58:54;8.95;;;4.45;;
71629;SDS011;59479;51.902;8.212;2023-03-01T15:01:23;8.25;;;4.03;;
71629;SDS011;59479;51.902;8.212;2023-03-01T15:03:49;10.63;;;4.80;;
71629;SDS011;59479;51.902;8.212;2023-03-01T15:06:17;7.97;;;3.95;;
71629;SDS011;59479;51.902;8.212;2023-03-01T15:08:47;7.57;;;3.97;;
71629;SDS011;59479;51.902;8.212;2023-03-01T15:11:32;7.25;;;3.75;;
71629;SDS011;59479;51.902;8.212;2023-03-01T15:20:23;9.10;;;4.03;;
71629;SDS011;59479;51.902;8.212;2023-03-01T15:22:55;7.35;;;4.25;;
71629;SDS011;59479;51.902;8.212;2023-03-01T15:25:23;8.30;;;4.40;;
71629;SDS011;59479;51.902;8.212;2023-03-01T15:27:59;7.57;;;4.00;;
71629;SDS011;59479;51.902;8.212;2023-03-01T15:30:27;7.27;;;4.17;;
71629;SDS011;59479;51.902;8.212;2023-03-01T15:35:53;7.70;;;4.13;;
71629;SDS011;59479;51.902;8.212;2023-03-01T15:44:28;6.73;;;3.80;;
71629;SDS011;59479;51.902;8.212;2023-03-01T15:46:57;10.60;;;4.53;;
71629;SDS011;59479;51.902;8.212;2023-03-01T15:49:40;9.90;;;4.57;;
71629;SDS011;59479;51.902;8.212;2023-03-01T15:52:14;9.00;;;4.07;;
71629;SDS011;59479;51.902;8.212;2023-03-01T15:54:59;7.57;;;4.07;;
71629;SDS011;59479;51.902;8.212;2023-03-01T15:57:26;9.77;;;4.20;;
71629;SDS011;59479;51.902;8.212;2023-03-01T16:00:12;8.35;;;3.90;;
71629;SDS011;59479;51.902;8.212;2023-03-01T16:02:44;8.88;;;3.90;;
71629;SDS011;59479;51.902;8.212;2023-03-01T16:05:24;8.18;;;4.03;;
71629;SDS011;59479;51.902;8.212;2023-03-01T16:07:57;8.90;;;4.18;;
71629;SDS011;59479;51.902;8.212;2023-03-01T16:10:26;8.87;;;3.80;;
71629;SDS011;59479;51.902;8.212;2023-03-01T16:12:56;9.40;;;5.00;;
71629;SDS011;59479;51.902;8.212;2023-03-01T16:15:23;9.73;;;4.57;;
71629;SDS011;59479;51.902;8.212;2023-03-01T16:17:52;8.75;;;4.13;;
71629;SDS011;59479;51.902;8.212;2023-03-01T16:20:18;10.63;;;4.77;;
71629;SDS011;59479;51.902;8.212;2023-03-01T16:22:59;7.72;;;4.03;;
71629;SDS011;59479;51.902;8.212;2023-03-01T16:25:26;8.15;;;4.45;;
71629;SDS011;59479;51.902;8.212;2023-03-01T16:27:51;7.50;;;3.87;;
71629;SDS011;59479;51.902;8.212;2023-03-01T16:30:22;6.97;;;3.70;;
71629;SDS011;59479;51.902;8.212;2023-03-01T16:32:48;8.93;;;4.40;;
71629;SDS011;59479;51.902;8.212;2023-03-01T16:35:16;7.75;;;3.95;;
71629;SDS011;59479;51.902;8.212;2023-03-01T16:37:43;6.97;;;4.17;;
71629;SDS011;59479;51.902;8.212;2023-03-01T16:40:19;9.10;;;4.15;;
71629;SDS011;59479;51.902;8.212;2023-03-01T16:42:48;7.70;;;4.00;;
71629;SDS011;59479;51.902;8.212;2023-03-01T16:45:33;7.68;;;3.53;;
71629;SDS011;59479;51.902;8.212;2023-03-01T16:48:05;8.55;;;3.80;;
71629;SDS011;59479;51.902;8.212;2023-03-01T16:50:32;5.77;;;3.40;;
71629;SDS011;59479;51.902;8.212;2023-03-01T16:53:00;6.53;;;3.60;;
71629;SDS011;59479;51.902;8.212;2023-03-01T16:55:26;7.40;;;4.15;;
71629;SDS011;59479;51.902;8.212;2023-03-01T16:57:54;7.90;;;4.20;;
71629;SDS011;59479;51.902;8.212;2023-03-01T17:00:20;8.60;;;4.35;;
71629;SDS011;59479;51.902;8.212;2023-03-01T17:02:45;6.90;;;4.00;;
71629;SDS011;59479;51.902;8.212;2023-03-01T17:05:11;6.63;;;3.72;;
71629;SDS011;59479;51.902;8.212;2023-03-01T17:07:37;8.13;;;4.50;;
71629;SDS011;59479;51.902;8.212;2023-03-01T17:10:03;8.38;;;3.90;;
71629;SDS011;59479;51.902;8.212;2023-03-01T17:12:33;6.22;;;3.65;;
71629;SDS011;59479;51.902;8.212;2023-03-01T17:14:58;6.83;;;3.37;;
71629;SDS011;59479;51.902;8.212;2023-03-01T17:17:24;9.37;;;4.50;;